createdAt,value
2022-12-20T00:01:35.218Z,10.13
2022-12-20T00:04:05.859Z,7.00
2022-12-20T00:06:36.771Z,9.45
2022-12-20T00:09:06.421Z,8.88
2022-12-20T00:11:33.777Z,7.80
2022-12-20T00:16:29.286Z,8.82
2022-12-20T00:19:02.301Z,13.38
2022-12-20T00:21:30.691Z,8.93
2022-12-20T00:23:58.358Z,14.98
2022-12-20T00:26:29.026Z,8.02
2022-12-20T00:28:57.054Z,7.93
2022-12-20T00:31:25.706Z,12.77
2022-12-20T00:33:55.309Z,12.15
2022-12-20T00:36:24.064Z,10.18
2022-12-20T00:38:54.294Z,7.90
2022-12-20T00:41:28.179Z,14.23
2022-12-20T00:43:55.591Z,15.40
2022-12-20T00:46:24.885Z,11.82
2022-12-20T00:48:54.522Z,12.77
2022-12-20T00:51:25.317Z,14.00
2022-12-20T00:53:53.304Z,9.55
2022-12-20T00:56:20.741Z,12.30
2022-12-20T00:58:48.876Z,8.95
2022-12-20T01:01:27.943Z,13.38
2022-12-20T01:03:55.275Z,15.10
2022-12-20T01:06:24.263Z,9.88
2022-12-20T01:08:52.831Z,10.15
2022-12-20T01:11:24.012Z,7.57
2022-12-20T01:13:56.241Z,9.88
2022-12-20T01:16:33.492Z,9.82
2022-12-20T01:19:01.489Z,10.55
2022-12-20T01:21:29.499Z,9.18
2022-12-20T01:23:56.840Z,8.95
2022-12-20T01:26:26.703Z,9.98
2022-12-20T01:28:56.384Z,14.63
2022-12-20T01:31:24.761Z,12.07
2022-12-20T01:33:52.716Z,12.73
2022-12-20T01:36:29.545Z,12.93
2022-12-20T01:39:01.235Z,12.77
2022-12-20T01:41:30.945Z,12.32
2022-12-20T01:44:01.561Z,7.70
2022-12-20T01:46:39.723Z,11.55
2022-12-20T01:49:26.828Z,10.60
2022-12-20T01:52:03.525Z,13.10
2022-12-20T01:54:45.207Z,10.37
2022-12-20T01:57:21.320Z,8.65
2022-12-20T01:59:51.045Z,11.43
2022-12-20T02:02:18.794Z,6.88
2022-12-20T02:04:45.987Z,13.45
2022-12-20T02:09:45.305Z,12.57
2022-12-20T02:12:26.735Z,16.15
2022-12-20T02:15:30.714Z,12.75
2022-12-20T02:18:11.022Z,14.57
2022-12-20T02:21:07.263Z,11.93
2022-12-20T02:24:12.143Z,7.88
2022-12-20T02:27:07.822Z,11.38
2022-12-20T02:29:43.623Z,12.00
2022-12-20T02:32:24.829Z,10.13
2022-12-20T02:34:52.979Z,11.85
2022-12-20T02:37:20.380Z,14.45
2022-12-20T02:39:48.838Z,7.95
2022-12-20T02:42:22.565Z,10.57
2022-12-20T02:45:15.373Z,9.65
2022-12-20T02:47:57.781Z,9.85
2022-12-20T02:50:31.929Z,15.82
2022-12-20T02:53:00.668Z,11.90
2022-12-20T02:55:50.998Z,12.13
2022-12-20T02:58:39.248Z,8.15
2022-12-20T03:03:40.137Z,14.18
2022-12-20T03:06:07.870Z,14.43
2022-12-20T03:08:35.828Z,16.73
2022-12-20T03:11:03.141Z,13.82
2022-12-20T03:13:32.108Z,17.88
2022-12-20T03:16:03.315Z,15.73
2022-12-20T03:20:57.726Z,13.80
2022-12-20T03:23:25.436Z,16.25
2022-12-20T03:25:52.762Z,16.00
2022-12-20T03:28:40.018Z,23.73
2022-12-20T03:31:09.368Z,21.77
2022-12-20T03:33:44.503Z,18.88
2022-12-20T03:36:12.088Z,10.80
2022-12-20T03:38:39.497Z,13.68
2022-12-20T03:41:08.278Z,19.58
2022-12-20T03:43:35.534Z,22.05
2022-12-20T03:46:03.868Z,19.63
2022-12-20T03:48:35.082Z,15.10
2022-12-20T03:51:02.253Z,17.40
2022-12-20T03:53:29.948Z,19.70
2022-12-20T03:55:57.539Z,18.35
2022-12-20T03:58:25.093Z,14.05
2022-12-20T04:03:55.304Z,13.80
2022-12-20T04:06:23.576Z,16.90
2022-12-20T04:08:51.538Z,24.92
2022-12-20T04:11:29.115Z,19.10
2022-12-20T04:14:04.907Z,21.23
2022-12-20T04:16:34.171Z,22.15
2022-12-20T04:19:02.228Z,21.95
2022-12-20T04:21:36.115Z,21.17
2022-12-20T04:24:05.367Z,24.52
2022-12-20T04:26:44.043Z,32.03
2022-12-20T04:29:12.484Z,24.92
2022-12-20T04:31:42.461Z,22.73
2022-12-20T04:34:10.100Z,36.42
2022-12-20T04:36:38.128Z,30.50
2022-12-20T04:39:14.475Z,17.73
2022-12-20T04:42:00.563Z,17.58
2022-12-20T04:44:28.591Z,23.35
2022-12-20T04:46:55.929Z,24.00
2022-12-20T04:49:23.312Z,18.58
2022-12-20T04:54:18.623Z,18.98
2022-12-20T04:56:57.800Z,22.73
2022-12-20T04:59:25.145Z,21.05
2022-12-20T05:01:54.461Z,18.58
2022-12-20T05:04:50.577Z,15.15
2022-12-20T05:07:17.933Z,19.50
2022-12-20T05:09:51.295Z,25.65
2022-12-20T05:12:18.754Z,24.15
2022-12-20T05:14:46.287Z,24.70
2022-12-20T05:17:16.336Z,14.90
2022-12-20T05:19:44.079Z,16.17
2022-12-20T05:22:31.578Z,14.80
2022-12-20T05:25:30.365Z,21.73
2022-12-20T05:28:01.246Z,25.48
2022-12-20T05:30:32.401Z,18.23
2022-12-20T05:32:59.477Z,20.75
2022-12-20T05:35:27.450Z,25.85
2022-12-20T05:38:02.615Z,16.95
2022-12-20T05:40:31.979Z,20.58
2022-12-20T05:42:59.691Z,20.00
2022-12-20T05:45:35.844Z,23.63
2022-12-20T05:48:08.789Z,21.83
2022-12-20T05:50:39.737Z,19.17
2022-12-20T05:53:32.686Z,15.95
2022-12-20T05:56:04.092Z,11.43
2022-12-20T05:58:34.526Z,18.98
2022-12-20T06:01:06.353Z,12.18
2022-12-20T06:03:40.974Z,15.23
2022-12-20T06:06:15.419Z,19.27
2022-12-20T06:08:45.837Z,19.90
2022-12-20T06:11:36.337Z,22.05
2022-12-20T06:14:09.844Z,23.40
2022-12-20T06:16:40.653Z,11.57
2022-12-20T06:19:12.538Z,14.20
2022-12-20T06:21:41.811Z,15.77
2022-12-20T06:24:11.747Z,16.42
2022-12-20T06:26:42.514Z,15.15
2022-12-20T06:29:14.399Z,19.15
2022-12-20T06:31:47.885Z,19.85
2022-12-20T06:34:16.187Z,13.00
2022-12-20T06:36:43.908Z,15.55
2022-12-20T06:39:17.451Z,18.00
2022-12-20T06:42:00.118Z,15.13
2022-12-20T06:46:54.503Z,21.58
2022-12-20T06:49:22.621Z,19.77
2022-12-20T06:51:50.479Z,13.57
2022-12-20T06:54:21.845Z,13.55
2022-12-20T06:56:48.867Z,12.98
2022-12-20T06:59:17.168Z,14.18
2022-12-20T07:01:44.984Z,9.70
2022-12-20T07:04:12.154Z,12.05
2022-12-20T07:09:06.345Z,18.52
2022-12-20T07:11:33.664Z,15.30
2022-12-20T07:14:00.767Z,11.35
2022-12-20T07:18:55.573Z,14.55
2022-12-20T07:21:22.626Z,12.57
2022-12-20T07:26:16.624Z,14.93
2022-12-20T07:31:11.112Z,10.88
2022-12-20T07:33:39.101Z,11.07
2022-12-20T07:36:11.451Z,7.65
2022-12-20T07:38:39.123Z,10.05
2022-12-20T07:41:10.538Z,12.77
2022-12-20T07:43:38.146Z,13.00
2022-12-20T07:46:06.683Z,12.82
2022-12-20T07:48:34.499Z,8.32
2022-12-20T07:51:10.392Z,10.27
2022-12-20T07:53:44.567Z,10.88
2022-12-20T07:56:13.890Z,10.13
2022-12-20T07:58:43.394Z,8.32
2022-12-20T08:01:13.049Z,11.23
2022-12-20T08:03:51.076Z,9.07
2022-12-20T08:06:19.167Z,9.50
2022-12-20T08:08:51.550Z,8.88
2022-12-20T08:11:20.848Z,8.48
2022-12-20T08:13:55.657Z,7.82
2022-12-20T08:16:24.941Z,8.53
2022-12-20T08:18:52.248Z,9.90
2022-12-20T08:21:19.473Z,11.30
2022-12-20T08:26:13.586Z,16.55
2022-12-20T08:28:40.686Z,11.50
2022-12-20T08:33:38.614Z,9.25
2022-12-20T08:36:10.867Z,8.68
2022-12-20T08:38:38.209Z,14.18
2022-12-20T08:41:11.132Z,10.27
2022-12-20T08:43:39.401Z,9.70
2022-12-20T08:46:08.166Z,6.85
2022-12-20T08:48:36.068Z,8.90
2022-12-20T08:51:09.501Z,13.30
2022-12-20T08:53:37.540Z,10.38
2022-12-20T08:56:18.080Z,11.20
2022-12-20T08:58:45.812Z,11.98
2022-12-20T09:01:15.654Z,6.22
2022-12-20T09:03:43.206Z,9.55
2022-12-20T09:06:13.586Z,5.85
2022-12-20T09:08:41.213Z,8.55
2022-12-20T09:11:12.238Z,8.63
2022-12-20T09:13:43.969Z,6.47
2022-12-20T09:16:17.278Z,7.47
2022-12-20T09:18:44.457Z,8.82
2022-12-20T09:23:38.791Z,7.32
2022-12-20T09:26:10.768Z,11.13
2022-12-20T09:28:38.111Z,10.85
2022-12-20T09:31:07.465Z,9.35
2022-12-20T09:33:35.568Z,10.98
2022-12-20T09:36:03.967Z,9.20
2022-12-20T09:38:32.465Z,8.18
2022-12-20T09:41:03.617Z,14.55
2022-12-20T09:43:32.127Z,7.25
2022-12-20T09:46:01.639Z,8.55
2022-12-20T09:48:38.150Z,9.30
2022-12-20T09:51:18.488Z,9.07
2022-12-20T09:54:22.971Z,7.80
2022-12-20T09:57:19.191Z,11.43
2022-12-20T09:59:49.830Z,8.63
2022-12-20T10:05:46.112Z,8.43
2022-12-20T10:08:24.778Z,5.95
2022-12-20T10:10:59.722Z,9.30
2022-12-20T10:13:38.956Z,7.78
2022-12-20T10:16:33.806Z,10.38
2022-12-20T10:19:13.041Z,8.90
2022-12-20T10:22:04.465Z,8.07
2022-12-20T10:24:33.310Z,12.30
2022-12-20T10:27:13.119Z,11.40
2022-12-20T10:29:41.054Z,8.25
2022-12-20T10:32:19.020Z,12.63
2022-12-20T10:35:13.367Z,10.48
2022-12-20T10:38:09.949Z,12.10
2022-12-20T10:41:20.569Z,7.45
2022-12-20T10:43:51.502Z,16.63
2022-12-20T10:46:22.042Z,6.13
2022-12-20T10:48:49.638Z,8.63
2022-12-20T10:51:27.675Z,12.30
2022-12-20T10:54:04.121Z,11.73
2022-12-20T10:56:53.907Z,10.57
2022-12-20T10:59:21.400Z,11.00
2022-12-20T11:01:49.769Z,9.20
2022-12-20T11:04:29.065Z,11.15
2022-12-20T11:06:57.217Z,9.98
2022-12-20T11:09:33.535Z,7.38
2022-12-20T11:12:15.761Z,6.78
2022-12-20T11:14:47.744Z,6.78
2022-12-20T11:17:14.748Z,7.05
2022-12-20T11:19:56.831Z,5.47
2022-12-20T11:22:52.149Z,5.93
2022-12-20T11:25:25.344Z,13.38
2022-12-20T11:28:14.240Z,6.50
2022-12-20T11:30:54.431Z,11.68
2022-12-20T11:33:36.664Z,7.78
2022-12-20T11:36:03.755Z,9.32
2022-12-20T11:38:42.739Z,8.80
2022-12-20T11:41:45.132Z,6.90
2022-12-20T11:44:33.192Z,6.43
2022-12-20T11:47:57.359Z,6.47
2022-12-20T11:50:58.913Z,7.82
2022-12-20T11:53:32.996Z,6.70
2022-12-20T11:56:07.000Z,10.45
2022-12-20T11:58:46.423Z,10.25
2022-12-20T12:01:18.184Z,6.20
2022-12-20T12:04:11.478Z,6.03
2022-12-20T12:06:46.466Z,11.02
2022-12-20T12:09:16.526Z,12.45
2022-12-20T12:12:08.875Z,8.23
2022-12-20T12:14:54.921Z,9.45
2022-12-20T12:17:37.101Z,10.85
2022-12-20T12:20:34.047Z,8.52
2022-12-20T12:23:14.586Z,7.80
2022-12-20T12:25:41.929Z,9.32
2022-12-20T12:28:13.143Z,11.40
2022-12-20T12:30:46.360Z,9.05
2022-12-20T12:33:38.070Z,12.13
2022-12-20T12:36:42.744Z,9.82
2022-12-20T12:39:22.485Z,16.77
2022-12-20T12:41:52.659Z,8.85
2022-12-20T12:44:19.608Z,8.88
2022-12-20T12:49:24.579Z,9.18
2022-12-20T12:51:56.078Z,14.07
2022-12-20T12:54:27.388Z,11.23
2022-12-20T12:57:06.827Z,10.23
2022-12-20T12:59:33.908Z,6.75
2022-12-20T13:05:25.887Z,6.90
2022-12-20T13:07:53.857Z,12.80
2022-12-20T13:10:25.006Z,6.47
2022-12-20T13:12:52.918Z,8.13
2022-12-20T13:17:58.938Z,9.68
2022-12-20T13:20:29.091Z,8.68
2022-12-20T13:23:18.012Z,6.88
2022-12-20T13:25:49.638Z,10.85
2022-12-20T13:28:19.783Z,9.68
2022-12-20T13:30:53.299Z,11.40
2022-12-20T13:33:24.648Z,7.90
2022-12-20T13:36:03.980Z,12.27
2022-12-20T13:38:43.371Z,7.80
2022-12-20T13:41:34.828Z,14.45
2022-12-20T13:44:14.870Z,8.43
2022-12-20T13:46:54.160Z,11.45
2022-12-20T13:49:28.636Z,9.05
2022-12-20T13:52:25.518Z,10.82
2022-12-20T13:54:55.929Z,13.32
2022-12-20T13:57:33.169Z,7.22
2022-12-20T14:00:07.263Z,14.68
2022-12-20T14:02:41.219Z,12.98
2022-12-20T14:05:18.188Z,9.65
2022-12-20T14:07:56.105Z,14.93
2022-12-20T14:10:25.133Z,11.50
2022-12-20T14:12:53.658Z,13.60
2022-12-20T14:15:26.279Z,13.77
2022-12-20T14:17:53.824Z,10.23
2022-12-20T14:20:33.853Z,12.43
2022-12-20T14:23:06.513Z,11.32
2022-12-20T14:25:59.502Z,13.43
2022-12-20T14:28:31.826Z,8.32
2022-12-20T14:31:28.353Z,11.90
2022-12-20T14:34:29.735Z,11.68
2022-12-20T14:37:29.172Z,14.10
2022-12-20T14:39:59.324Z,14.27
2022-12-20T14:42:33.008Z,8.52
2022-12-20T14:45:09.395Z,13.93
2022-12-20T14:47:39.159Z,10.88
2022-12-20T14:50:27.203Z,11.63
2022-12-20T14:52:54.483Z,12.10
2022-12-20T14:55:28.056Z,12.32
2022-12-20T14:57:56.958Z,12.85
2022-12-20T15:00:30.643Z,9.00
2022-12-20T15:03:23.786Z,15.02
2022-12-20T15:05:56.240Z,16.85
2022-12-20T15:08:23.687Z,14.75
2022-12-20T15:10:57.772Z,9.82
2022-12-20T15:13:51.705Z,12.20
2022-12-20T15:16:29.631Z,10.45
2022-12-20T15:18:59.255Z,13.93
2022-12-20T15:21:36.248Z,9.65
2022-12-20T15:24:10.395Z,6.07
2022-12-20T15:26:40.149Z,13.77
2022-12-20T15:29:07.503Z,11.70
2022-12-20T15:31:43.456Z,10.88
2022-12-20T15:34:18.597Z,14.50
2022-12-20T15:36:46.924Z,10.02
2022-12-20T15:39:14.962Z,18.00
2022-12-20T15:41:46.558Z,19.15
2022-12-20T15:44:21.532Z,15.57
2022-12-20T15:46:49.125Z,12.95
2022-12-20T15:49:26.321Z,12.63
2022-12-20T15:51:55.908Z,11.68
2022-12-20T15:54:30.949Z,13.23
2022-12-20T15:57:03.187Z,12.38
2022-12-20T15:59:59.034Z,7.50
2022-12-20T16:02:24.898Z,14.57
2022-12-20T16:04:53.606Z,13.48
2022-12-20T16:07:21.025Z,10.80
2022-12-20T16:09:48.239Z,15.25
2022-12-20T16:12:18.574Z,7.70
2022-12-20T16:14:45.851Z,9.48
2022-12-20T16:17:14.411Z,13.68
2022-12-20T16:19:46.088Z,12.30
2022-12-20T16:22:18.166Z,12.02
2022-12-20T16:24:46.345Z,8.98
2022-12-20T16:27:13.938Z,11.18
2022-12-20T16:29:41.714Z,16.08
2022-12-20T16:32:18.506Z,14.02
2022-12-20T16:34:46.477Z,11.70
2022-12-20T16:37:15.487Z,13.45
2022-12-20T16:39:43.206Z,18.38
2022-12-20T16:42:13.395Z,11.82
2022-12-20T16:44:43.504Z,11.02
2022-12-20T16:47:11.577Z,12.60
2022-12-20T16:49:44.600Z,8.75
2022-12-20T16:52:18.110Z,15.25
2022-12-20T16:54:45.313Z,14.07
2022-12-20T16:57:12.474Z,15.90
2022-12-20T16:59:39.646Z,9.60
2022-12-20T17:02:22.982Z,26.77
2022-12-20T17:04:51.137Z,10.43
2022-12-20T17:07:21.030Z,9.57
2022-12-20T17:09:55.173Z,13.40
2022-12-20T17:12:27.627Z,10.60
2022-12-20T17:14:56.705Z,12.60
2022-12-20T17:17:23.924Z,11.38
2022-12-20T17:25:03.217Z,11.80
2022-12-20T17:27:30.479Z,13.00
2022-12-20T17:32:25.720Z,8.90
2022-12-20T17:34:54.082Z,12.40
2022-12-20T17:37:21.734Z,10.13
2022-12-20T17:39:49.288Z,16.40
2022-12-20T17:42:17.076Z,12.40
2022-12-20T17:44:47.546Z,17.02
2022-12-20T17:47:14.622Z,10.40
2022-12-20T17:52:15.755Z,15.82
2022-12-20T17:54:43.288Z,16.85
2022-12-20T17:57:17.176Z,8.52
2022-12-20T17:59:46.759Z,14.85
2022-12-20T18:02:25.266Z,15.48
2022-12-20T18:04:53.520Z,12.63
2022-12-20T18:07:20.865Z,8.20
2022-12-20T18:09:48.975Z,11.15
2022-12-20T18:12:16.750Z,7.50
2022-12-20T18:14:43.899Z,9.23
2022-12-20T18:19:38.737Z,16.70
2022-12-20T18:22:06.734Z,13.25
2022-12-20T18:24:33.896Z,13.68
2022-12-20T18:27:01.682Z,12.68
2022-12-20T18:29:29.421Z,13.63
2022-12-20T18:31:56.617Z,11.73
2022-12-20T18:34:23.984Z,26.90
2022-12-20T18:36:51.099Z,21.23
2022-12-20T18:39:18.635Z,11.25
2022-12-20T18:41:45.956Z,15.73
2022-12-20T18:44:13.035Z,21.25
2022-12-20T18:49:09.504Z,21.23
2022-12-20T18:51:37.082Z,13.30
2022-12-20T18:54:06.113Z,21.70
2022-12-20T18:56:36.693Z,22.98
2022-12-20T18:59:10.911Z,16.92
2022-12-20T19:01:40.854Z,24.45
2022-12-20T19:04:08.723Z,19.92
2022-12-20T19:06:37.509Z,26.65
2022-12-20T19:09:08.502Z,20.95
2022-12-20T19:11:35.977Z,33.58
2022-12-20T19:14:03.885Z,30.05
2022-12-20T19:16:32.997Z,29.42
2022-12-20T19:19:02.435Z,19.30
2022-12-20T19:21:31.969Z,20.38
2022-12-20T19:24:02.364Z,23.45
2022-12-20T19:26:30.035Z,14.35
2022-12-20T19:28:57.679Z,18.20
2022-12-20T19:31:32.947Z,23.83
2022-12-20T19:34:10.458Z,24.80
2022-12-20T19:39:12.487Z,19.48
2022-12-20T19:41:40.750Z,12.60
2022-12-20T19:44:09.048Z,19.17
2022-12-20T19:46:36.500Z,15.70
2022-12-20T19:49:04.277Z,31.52
2022-12-20T19:51:32.137Z,31.27
2022-12-20T19:54:00.080Z,26.65
2022-12-20T19:56:36.355Z,23.05
2022-12-20T19:59:04.010Z,23.70
2022-12-20T20:01:31.220Z,71.13
2022-12-20T20:04:00.581Z,25.00
2022-12-20T20:06:28.769Z,26.52
2022-12-20T20:08:57.848Z,19.85
2022-12-20T20:11:25.271Z,17.23
2022-12-20T20:13:52.836Z,39.83
2022-12-20T20:16:22.756Z,26.80
2022-12-20T20:18:50.667Z,23.95
2022-12-20T20:21:22.670Z,33.33
2022-12-20T20:23:54.890Z,25.63
2022-12-20T20:26:24.933Z,23.30
2022-12-20T20:28:52.723Z,33.33
2022-12-20T20:31:20.964Z,32.97
2022-12-20T20:33:48.538Z,33.33
2022-12-20T20:36:18.237Z,15.60
2022-12-20T20:38:46.141Z,23.90
2022-12-20T20:41:14.329Z,24.95
2022-12-20T20:43:42.195Z,28.38
2022-12-20T20:46:11.820Z,25.27
2022-12-20T20:48:39.909Z,31.08
2022-12-20T20:51:07.356Z,28.58
2022-12-20T20:53:35.546Z,23.70
2022-12-20T20:56:03.967Z,29.58
2022-12-20T20:58:31.885Z,27.15
2022-12-20T21:01:01.166Z,24.13
2022-12-20T21:03:30.466Z,22.38
2022-12-20T21:08:45.591Z,31.43
2022-12-20T21:11:13.141Z,33.72
2022-12-20T21:13:40.507Z,30.67
2022-12-20T21:18:58.888Z,32.75
2022-12-20T21:21:27.079Z,35.50
2022-12-20T21:23:55.212Z,29.33
2022-12-20T21:26:25.233Z,41.80
2022-12-20T21:28:56.981Z,39.15
2022-12-20T21:31:24.228Z,37.05
2022-12-20T21:33:51.322Z,28.92
2022-12-20T21:38:50.962Z,35.53
2022-12-20T21:41:19.383Z,33.35
2022-12-20T21:43:46.910Z,33.60
2022-12-20T21:46:13.990Z,31.17
2022-12-20T21:48:43.223Z,31.63
2022-12-20T21:51:11.796Z,35.67
2022-12-20T21:53:43.560Z,24.58
2022-12-20T21:56:11.109Z,29.15
2022-12-20T21:58:57.746Z,26.30
2022-12-20T22:01:27.433Z,29.33
2022-12-20T22:03:57.895Z,27.38
2022-12-20T22:06:25.712Z,28.38
2022-12-20T22:08:52.710Z,29.00
2022-12-20T22:11:19.943Z,26.52
2022-12-20T22:13:47.427Z,27.50
2022-12-20T22:16:21.223Z,30.50
2022-12-20T22:18:50.536Z,25.13
2022-12-20T22:21:19.607Z,22.83
2022-12-20T22:23:46.913Z,26.73
2022-12-20T22:26:16.883Z,22.80
2022-12-20T22:28:47.357Z,26.15
2022-12-20T22:31:15.242Z,28.25
2022-12-20T22:33:42.514Z,25.90
2022-12-20T22:36:10.779Z,26.02
2022-12-20T22:38:37.857Z,21.88
2022-12-20T22:43:34.521Z,25.17
2022-12-20T22:48:47.184Z,25.52
2022-12-20T22:51:18.948Z,25.20
2022-12-20T22:53:47.678Z,23.13
2022-12-20T22:56:16.480Z,27.65
2022-12-20T22:58:43.857Z,27.23
2022-12-20T23:01:12.824Z,27.90
2022-12-20T23:03:40.296Z,26.80
2022-12-20T23:06:10.408Z,27.75
2022-12-20T23:08:37.589Z,30.50
2022-12-20T23:14:10.690Z,36.25
2022-12-20T23:16:38.642Z,26.80
2022-12-20T23:19:05.782Z,29.52
2022-12-20T23:24:18.241Z,26.40
2022-12-20T23:26:45.200Z,29.10
2022-12-20T23:29:14.230Z,30.35
2022-12-20T23:31:41.793Z,30.80
2022-12-20T23:34:08.979Z,29.50
2022-12-20T23:39:03.691Z,32.42
2022-12-20T23:41:30.786Z,33.08
2022-12-20T23:46:25.408Z,28.60
2022-12-20T23:48:53.270Z,29.55
2022-12-20T23:51:21.296Z,29.23
2022-12-20T23:53:50.517Z,32.08
2022-12-20T23:56:20.743Z,30.35
2022-12-20T23:58:53.937Z,31.73
